Vashon, WA (98013)

7:43 PM PST on February 12, 2016 (GMT -0800)
Burton Penisula | | Change Station
CLOSE
Current Station
Personal Weather Station
Location: Vashon, WA
Elevation: 1 ft
Nearby Weather Stations

Elev 1 ft 47.39 °N, 122.46 °W | Updated 9 minutes ago

Mostly Cloudy
Mostly Cloudy
47.8 °F
Feels Like 48 °F
N
1.7
Wind Variable Wind from WNW

Today
High -- | Low -- °F
--% Chance of Precip.
Yesterday
High -- | Low -- °F
Precip. -- in
Pressure 30.19 in
Visibility 10.0 miles
Clouds Few 3100 ft
Scattered Clouds 3800 ft
Mostly Cloudy 6500 ft
Windchill 48 °F
Dew Point 46 °F
Humidity 94%
Rainfall 1.01 in
Snow Depth Not available.
7:20 AM 5:28 PM
Waxing Crescent, 26% visible
METAR KSEA 130253Z 24008KT 10SM FEW031 SCT038 BKN065 11/06 A3016 RMK AO2 SLP221 T01110061 53007
Pressure 30.19 in
Visibility 10.0 miles
Clouds Few 3100 ft
Scattered Clouds 3800 ft
Mostly Cloudy 6500 ft
Windchill 48 °F
Dew Point 46 °F
Humidity 94%
Rainfall 1.01 in
Snow Depth Not available.
7:20 AM 5:28 PM
Waxing Crescent, 26% visible
METAR KSEA 130253Z 24008KT 10SM FEW031 SCT038 BKN065 11/06 A3016 RMK AO2 SLP221 T01110061 53007

10-Day Weather Forecast

Almanac

Astronomy

Feb. 12, 2016 Rise Set
Actual Time
Civil Twilight
Nautical Twilight
Astronomical Twilight
Moon
Length of Visible Light
Length of Day
Tomorrow will be .
, % of the Moon is Illuminated

Today's Extremes

State Highs State Lows

Community

WunderPhotos

Upload Photos

1,892,492 photos uploaded!

WunderBlog® & News

Nearby

Air Quality

  Air Quality AQ Index Pollutant
Not available.

Snow Depth

Station Depth Elevation

Earthquake Activity

City Distance Mag. Time & Date
Minimum magnitude displayed is 2.5.

Coastal Water Temperatures

Place Temperature

Stations

Nearby Weather Stations

Station Location Temp. Windchill Dew Point Humidity Wind Precip. Elev Updated Type
                   

Watches & Warnings

There are currently no watches in effect.